Time;durP1;ratioP1;P1;durP2;ratioP2;P2;SDS_P1;SDS_P2;PMS_P1;PMS_P2;Temp;Humidity;BMP_temperature;BMP_pressure;BME280_temperature;BME280_humidity;BME280_pressure;Samples;Min_cycle;Max_cycle;Signal;HPM_P1;HPM_P2
2023/12/14 00:01:32;;;;;;;;;;;7.10;99.90;;;;;;4992043;28;19957;-69
2023/12/14 00:04:00;;;;;;;;;;;7.10;99.90;;;;;;4992128;28;19929;-68
2023/12/14 00:06:28;;;;;;;;;;;7.10;99.90;;;;;;4992042;28;20020;-69
2023/12/14 00:08:56;;;;;;;;;;;7.20;99.90;;;;;;4991884;28;20016;-68
2023/12/14 00:11:25;;;;;;;;;;;7.20;99.90;;;;;;4992091;28;20274;-68
2023/12/14 00:13:52;;;;;;;;;;;7.00;99.90;;;;;;5001057;28;20380;-69
2023/12/14 00:16:20;;;;;;;;;;;7.10;99.90;;;;;;5006848;28;20016;-68
2023/12/14 00:18:48;;;;;;;;;;;7.00;99.90;;;;;;4991632;28;20020;-68
2023/12/14 00:21:16;;;;;;;;;;;7.00;99.90;;;;;;4991992;28;19951;-68
2023/12/14 00:23:43;;;;;;;;;;;7.00;99.90;;;;;;4992106;28;19922;-69
2023/12/14 00:26:11;;;;;;;;;;;7.00;99.90;;;;;;4991649;28;19929;-67
2023/12/14 00:28:40;;;;;;;;;;;7.10;99.90;;;;;;4991622;28;20016;-68
2023/12/14 00:31:08;;;;;;;;;;;7.00;99.90;;;;;;4991734;28;20400;-68
2023/12/14 00:33:36;;;;;;;;;;;7.00;99.90;;;;;;4991766;28;19964;-69
2023/12/14 00:36:04;;;;;;;;;;;6.90;99.90;;;;;;4991671;28;20292;-68
2023/12/14 00:38:32;;;;;;;;;;;6.90;99.90;;;;;;4991844;28;19921;-68
2023/12/14 00:41:00;;;;;;;;;;;6.90;99.90;;;;;;4991710;28;20068;-68
2023/12/14 00:43:28;;;;;;;;;;;6.90;99.90;;;;;;4998142;28;20281;-68
2023/12/14 00:45:57;;;;;;;;;;;6.90;99.90;;;;;;5010126;28;19957;-68
2023/12/14 00:48:25;;;;;;;;;;;7.00;99.90;;;;;;4991401;28;20297;-68
2023/12/14 00:50:53;;;;;;;;;;;7.00;99.90;;;;;;4991920;28;20270;-68
2023/12/14 00:53:20;;;;;;;;;;;7.00;99.90;;;;;;4991812;28;19921;-68
2023/12/14 00:55:48;;;;;;;;;;;6.90;99.90;;;;;;4991778;28;19926;-68
2023/12/14 00:58:16;;;;;;;;;;;6.90;99.90;;;;;;4991359;28;19922;-68
2023/12/14 01:00:44;;;;;;;;;;;6.90;99.90;;;;;;4998621;28;19925;-69
2023/12/14 01:03:13;;;;;;;;;;;6.90;99.90;;;;;;4992145;28;20372;-69
2023/12/14 01:05:40;;;;;;;;;;;6.80;99.90;;;;;;4998516;28;19927;-69
2023/12/14 01:08:08;;;;;;;;;;;6.80;99.90;;;;;;4992022;28;19921;-68
2023/12/14 01:10:36;;;;;;;;;;;6.90;99.90;;;;;;4991583;28;19926;-68
2023/12/14 01:13:04;;;;;;;;;;;6.80;99.90;;;;;;4997172;28;20296;-68
2023/12/14 01:15:32;;;;;;;;;;;6.90;99.90;;;;;;5014753;28;19925;-68
2023/12/14 01:17:59;;;;;;;;;;;6.80;99.90;;;;;;4997011;28;20385;-68
2023/12/14 01:20:29;;;;;;;;;;;6.80;99.90;;;;;;4995254;28;19925;-68
2023/12/14 01:22:56;;;;;;;;;;;6.90;99.90;;;;;;4995436;28;20296;-69
2023/12/14 01:25:24;;;;;;;;;;;6.90;99.90;;;;;;4995339;28;19929;-68
2023/12/14 01:27:52;;;;;;;;;;;6.90;99.90;;;;;;4994742;28;20389;-69
2023/12/14 01:30:20;;;;;;;;;;;6.90;99.90;;;;;;4995061;28;19921;-68
2023/12/14 01:32:48;;;;;;;;;;;6.80;99.90;;;;;;4995018;28;19968;-68
2023/12/14 01:35:16;;;;;;;;;;;6.80;99.90;;;;;;4994947;28;19976;-68
2023/12/14 01:37:45;;;;;;;;;;;6.90;99.90;;;;;;4994742;28;20291;-68
2023/12/14 01:40:13;;;;;;;;;;;6.90;99.90;;;;;;4994525;28;20297;-68
2023/12/14 01:42:40;;;;;;;;;;;7.00;99.90;;;;;;4994897;28;19925;-68
2023/12/14 01:45:09;;;;;;;;;;;7.00;99.90;;;;;;5012632;28;19975;-68
2023/12/14 01:47:36;;;;;;;;;;;7.00;99.90;;;;;;5000336;28;19929;-69
2023/12/14 01:50:04;;;;;;;;;;;7.10;99.90;;;;;;4994474;28;20017;-68
2023/12/14 01:52:32;;;;;;;;;;;7.10;99.90;;;;;;4994569;28;19925;-68
2023/12/14 01:55:02;;;;;;;;;;;7.10;99.90;;;;;;4994520;28;19922;-68
2023/12/14 01:57:30;;;;;;;;;;;7.20;99.90;;;;;;4994373;28;19922;-68
2023/12/14 01:59:58;;;;;;;;;;;7.20;99.90;;;;;;4994026;28;19926;-68
2023/12/14 02:02:26;;;;;;;;;;;7.30;99.90;;;;;;4994561;28;20301;-68
2023/12/14 02:04:53;;;;;;;;;;;7.30;99.90;;;;;;4994618;28;19980;-68
2023/12/14 02:07:21;;;;;;;;;;;7.30;99.90;;;;;;4993948;28;19928;-68
2023/12/14 02:09:50;;;;;;;;;;;7.40;99.90;;;;;;4994013;28;19921;-68
2023/12/14 02:12:19;;;;;;;;;;;7.40;99.90;;;;;;4994554;28;19929;-68
2023/12/14 02:14:49;;;;;;;;;;;7.40;99.90;;;;;;5010824;28;20427;-68
2023/12/14 02:17:17;;;;;;;;;;;7.50;99.90;;;;;;5002745;28;20407;-69
2023/12/14 02:19:44;;;;;;;;;;;7.50;99.90;;;;;;4994020;28;19928;-68
2023/12/14 02:22:12;;;;;;;;;;;7.60;99.90;;;;;;4994078;28;20300;-69
2023/12/14 02:24:41;;;;;;;;;;;7.70;99.90;;;;;;4992972;28;20028;-69
2023/12/14 02:27:09;;;;;;;;;;;7.80;99.90;;;;;;4993704;28;20393;-67
2023/12/14 02:29:37;;;;;;;;;;;7.80;99.90;;;;;;4998725;28;19928;-67
2023/12/14 02:32:05;;;;;;;;;;;7.90;99.90;;;;;;4996265;28;19926;-67
2023/12/14 02:34:33;;;;;;;;;;;8.00;99.90;;;;;;4993731;28;19921;-67
2023/12/14 02:37:00;;;;;;;;;;;8.00;99.90;;;;;;4993661;28;19929;-68
2023/12/14 02:39:28;;;;;;;;;;;8.00;99.90;;;;;;4993578;28;19921;-67
2023/12/14 02:41:57;;;;;;;;;;;8.10;99.90;;;;;;4993899;28;20352;-68
2023/12/14 02:44:25;;;;;;;;;;;8.10;99.90;;;;;;5007183;28;20066;-67
2023/12/14 02:46:53;;;;;;;;;;;8.00;99.90;;;;;;5005766;28;19976;-69
2023/12/14 02:49:21;;;;;;;;;;;8.10;99.90;;;;;;4993453;28;19953;-69
2023/12/14 02:51:49;;;;;;;;;;;8.10;99.90;;;;;;4993689;28;19929;-69
2023/12/14 02:54:16;;;;;;;;;;;8.00;99.90;;;;;;4993104;28;19929;-69
2023/12/14 02:56:44;;;;;;;;;;;8.10;99.90;;;;;;4993391;28;19925;-69
2023/12/14 02:59:13;;;;;;;;;;;8.10;99.90;;;;;;4993193;28;19944;-69
2023/12/14 03:01:41;;;;;;;;;;;8.20;99.90;;;;;;4993361;28;19957;-69
2023/12/14 03:04:09;;;;;;;;;;;8.30;99.90;;;;;;4993088;28;19922;-68
2023/12/14 03:06:37;;;;;;;;;;;8.30;99.90;;;;;;4993261;28;19925;-70
2023/12/14 03:09:04;;;;;;;;;;;8.30;99.90;;;;;;4993179;28;19922;-69
2023/12/14 03:11:32;;;;;;;;;;;8.30;99.90;;;;;;5001271;28;19932;-70
2023/12/14 03:14:00;;;;;;;;;;;8.40;99.90;;;;;;5003298;28;19921;-68
2023/12/14 03:16:30;;;;;;;;;;;8.30;99.90;;;;;;5001038;28;19949;-68
2023/12/14 03:18:57;;;;;;;;;;;8.30;99.90;;;;;;4993905;28;19922;-68
2023/12/14 03:21:25;;;;;;;;;;;8.40;99.90;;;;;;5000976;28;19957;-68
2023/12/14 03:23:53;;;;;;;;;;;8.40;99.90;;;;;;4992974;28;19944;-68
2023/12/14 03:26:21;;;;;;;;;;;8.40;99.90;;;;;;4992586;28;19922;-68
2023/12/14 03:28:49;;;;;;;;;;;8.40;99.90;;;;;;4993000;28;19926;-68
2023/12/14 03:31:17;;;;;;;;;;;8.40;99.90;;;;;;4992936;28;20442;-67
2023/12/14 03:33:46;;;;;;;;;;;8.40;99.90;;;;;;4992541;28;20328;-67
2023/12/14 03:36:14;;;;;;;;;;;8.40;99.90;;;;;;4991916;28;19953;-69
2023/12/14 03:38:42;;;;;;;;;;;8.40;99.90;;;;;;4992758;28;19972;-68
2023/12/14 03:41:10;;;;;;;;;;;8.40;99.90;;;;;;5000453;28;19929;-68
2023/12/14 03:43:37;;;;;;;;;;;8.40;99.90;;;;;;4999788;28;19922;-68
2023/12/14 03:46:06;;;;;;;;;;;8.30;99.90;;;;;;5011692;28;19928;-70
2023/12/14 03:48:33;;;;;;;;;;;8.00;99.90;;;;;;4992658;28;19928;-68
2023/12/14 03:51:04;;;;;;;;;;;8.00;99.90;;;;;;5000022;28;19927;-69
2023/12/14 03:53:32;;;;;;;;;;;8.00;99.90;;;;;;4992137;28;19928;-68
2023/12/14 03:56:01;;;;;;;;;;;8.00;99.90;;;;;;4992330;28;19929;-69
2023/12/14 03:58:28;;;;;;;;;;;8.10;99.90;;;;;;4992088;28;19926;-68
2023/12/14 04:00:56;;;;;;;;;;;8.20;99.90;;;;;;5035789;22;20405;-77
2023/12/14 04:03:24;;;;;;;;;;;8.30;99.90;;;;;;5031320;28;19925;-76
2023/12/14 04:05:52;;;;;;;;;;;8.20;99.90;;;;;;5031451;28;19933;-77
2023/12/14 04:08:21;;;;;;;;;;;8.10;99.90;;;;;;5031048;28;20000;-77
2023/12/14 04:10:49;;;;;;;;;;;8.00;99.90;;;;;;5031504;28;19925;-76
2023/12/14 04:13:17;;;;;;;;;;;7.90;99.90;;;;;;5027926;28;19921;-76
2023/12/14 04:15:45;;;;;;;;;;;7.90;99.90;;;;;;5009102;28;20308;-77
2023/12/14 04:18:13;;;;;;;;;;;8.00;99.90;;;;;;5028433;28;19921;-76
2023/12/14 04:20:41;;;;;;;;;;;8.00;99.90;;;;;;5031145;28;20015;-76
2023/12/14 04:23:08;;;;;;;;;;;8.00;99.90;;;;;;5031526;28;19925;-77
2023/12/14 04:25:37;;;;;;;;;;;8.00;99.90;;;;;;5031325;28;19946;-78
2023/12/14 04:28:05;;;;;;;;;;;8.00;99.90;;;;;;5031225;28;20020;-76
2023/12/14 04:30:33;;;;;;;;;;;8.10;99.90;;;;;;5030535;28;19925;-77
2023/12/14 04:33:01;;;;;;;;;;;8.10;99.90;;;;;;5024389;28;19972;-76
2023/12/14 04:35:29;;;;;;;;;;;8.00;99.90;;;;;;5022024;28;19931;-79
2023/12/14 04:37:56;;;;;;;;;;;7.90;99.90;;;;;;5028900;28;19921;-78
2023/12/14 04:40:24;;;;;;;;;;;7.90;99.90;;;;;;5022456;28;19929;-75
2023/12/14 04:42:53;;;;;;;;;;;7.90;99.90;;;;;;5017410;28;19928;-74
2023/12/14 04:45:21;;;;;;;;;;;8.00;99.90;;;;;;5006519;28;19940;-78
2023/12/14 04:47:49;;;;;;;;;;;8.00;99.90;;;;;;5010975;28;20300;-75
2023/12/14 04:50:17;;;;;;;;;;;8.10;99.90;;;;;;5023061;28;19926;-76
2023/12/14 04:52:45;;;;;;;;;;;8.10;99.90;;;;;;5017143;28;20285;-76
2023/12/14 04:55:12;;;;;;;;;;;8.10;99.90;;;;;;5023085;28;20270;-75
2023/12/14 04:57:40;;;;;;;;;;;8.10;99.90;;;;;;5019761;28;20315;-75
2023/12/14 05:00:10;;;;;;;;;;;8.10;99.90;;;;;;5017989;28;19925;-77
2023/12/14 05:02:38;;;;;;;;;;;8.20;99.90;;;;;;5015496;28;19928;-79
2023/12/14 05:05:06;;;;;;;;;;;8.20;99.90;;;;;;5012294;28;19922;-73
2023/12/14 05:07:33;;;;;;;;;;;8.00;99.90;;;;;;5014684;28;19924;-73
2023/12/14 05:10:02;;;;;;;;;;;7.90;99.90;;;;;;5009804;28;19927;-72
2023/12/14 05:12:31;;;;;;;;;;;7.80;99.90;;;;;;5022463;28;19921;-73
2023/12/14 05:14:59;;;;;;;;;;;7.70;99.90;;;;;;5003236;28;20433;-73
2023/12/14 05:17:28;;;;;;;;;;;7.60;99.90;;;;;;5008960;28;19928;-73
2023/12/14 05:19:56;;;;;;;;;;;7.40;99.90;;;;;;5007402;28;19936;-73
2023/12/14 05:22:24;;;;;;;;;;;7.20;99.90;;;;;;5005298;28;19976;-73
2023/12/14 05:24:52;;;;;;;;;;;7.10;99.90;;;;;;5018957;28;19924;-76
2023/12/14 05:27:19;;;;;;;;;;;7.00;99.90;;;;;;5031338;28;19921;-77
2023/12/14 05:29:47;;;;;;;;;;;6.90;99.90;;;;;;5029290;28;19928;-74
2023/12/14 05:32:15;;;;;;;;;;;6.90;99.90;;;;;;5034269;28;19921;-76
2023/12/14 05:34:44;;;;;;;;;;;6.90;99.90;;;;;;5030401;28;20300;-72
2023/12/14 05:37:12;;;;;;;;;;;6.90;99.90;;;;;;5030343;28;20379;-75
2023/12/14 05:39:41;;;;;;;;;;;6.80;99.90;;;;;;5034088;28;19928;-75
2023/12/14 05:42:09;;;;;;;;;;;6.70;99.90;;;;;;5034243;28;19925;-74
2023/12/14 05:44:37;;;;;;;;;;;6.60;99.90;;;;;;5015297;28;19949;-73
2023/12/14 05:47:05;;;;;;;;;;;6.50;99.90;;;;;;5007919;28;19921;-74
2023/12/14 05:49:33;;;;;;;;;;;6.60;99.90;;;;;;5033971;28;19998;-75
2023/12/14 05:52:02;;;;;;;;;;;6.60;99.90;;;;;;5034418;28;20016;-74
2023/12/14 05:54:30;;;;;;;;;;;6.60;99.90;;;;;;5033448;28;20449;-73
2023/12/14 05:56:58;;;;;;;;;;;6.60;99.90;;;;;;5033809;28;19991;-73
2023/12/14 05:59:25;;;;;;;;;;;6.60;99.90;;;;;;5033663;28;19967;-73
2023/12/14 06:01:57;;;;;;;;;;;6.70;99.90;;;;;;5033715;28;19974;-76
2023/12/14 06:04:25;;;;;;;;;;;6.70;99.90;;;;;;5025582;28;19921;-73
2023/12/14 06:06:53;;;;;;;;;;;6.70;99.90;;;;;;5033344;28;19928;-73
2023/12/14 06:09:31;;;;;;;;;;;6.80;99.90;;;;;;5033694;28;19991;-73
2023/12/14 06:11:59;;;;;;;;;;;6.80;99.90;;;;;;5033777;28;20354;-73
2023/12/14 06:14:27;;;;;;;;;;;6.90;99.90;;;;;;5010388;28;19925;-73
2023/12/14 06:16:55;;;;;;;;;;;6.90;99.90;;;;;;5003388;28;19932;-73
2023/12/14 06:19:22;;;;;;;;;;;7.00;99.90;;;;;;5033239;28;19925;-74
2023/12/14 06:21:50;;;;;;;;;;;7.00;99.90;;;;;;5033448;28;19928;-76
2023/12/14 06:24:18;;;;;;;;;;;6.90;99.90;;;;;;5033663;28;19925;-74
2023/12/14 06:26:47;;;;;;;;;;;7.00;99.90;;;;;;5017081;28;20438;-74
2023/12/14 06:29:15;;;;;;;;;;;6.90;99.90;;;;;;5033522;28;19925;-74
2023/12/14 06:31:43;;;;;;;;;;;7.00;99.90;;;;;;5033128;28;19971;-74
2023/12/14 06:34:11;;;;;;;;;;;7.00;99.90;;;;;;5033257;28;19929;-74
2023/12/14 06:36:42;;;;;;;;;;;7.00;99.90;;;;;;5032575;28;19968;-76
2023/12/14 06:39:10;;;;;;;;;;;6.90;99.90;;;;;;5033610;28;20285;-73
2023/12/14 06:41:38;;;;;;;;;;;6.90;99.90;;;;;;5032953;28;20384;-73
2023/12/14 06:44:09;;;;;;;;;;;6.90;99.90;;;;;;5015764;28;19922;-74
2023/12/14 06:46:36;;;;;;;;;;;7.00;99.90;;;;;;5005216;28;19921;-74
2023/12/14 06:49:04;;;;;;;;;;;7.20;99.90;;;;;;5033075;28;20020;-74
2023/12/14 06:51:32;;;;;;;;;;;7.20;99.90;;;;;;5024524;28;20035;-73
2023/12/14 06:54:00;;;;;;;;;;;7.20;99.90;;;;;;5033063;28;19928;-73
2023/12/14 06:56:28;;;;;;;;;;;7.20;99.90;;;;;;5032249;28;19932;-74
2023/12/14 06:58:56;;;;;;;;;;;7.20;99.90;;;;;;5024595;28;19928;-72
2023/12/14 07:01:25;;;;;;;;;;;7.20;99.90;;;;;;5032290;28;20305;-72
2023/12/14 07:03:53;;;;;;;;;;;7.10;99.90;;;;;;5032846;28;20395;-72
2023/12/14 07:06:21;;;;;;;;;;;7.10;99.90;;;;;;5024719;28;20106;-72
2023/12/14 07:08:49;;;;;;;;;;;7.00;99.90;;;;;;5016044;28;19921;-73
2023/12/14 07:11:17;;;;;;;;;;;7.10;99.90;;;;;;5032370;28;19921;-73
2023/12/14 07:13:45;;;;;;;;;;;7.10;99.90;;;;;;5021266;28;19933;-73
2023/12/14 07:16:13;;;;;;;;;;;7.00;99.90;;;;;;4992776;28;19949;-73
2023/12/14 07:18:42;;;;;;;;;;;7.00;99.90;;;;;;5030087;28;19921;-72
2023/12/14 07:21:11;;;;;;;;;;;7.10;99.90;;;;;;5032393;28;20371;-72
2023/12/14 07:23:39;;;;;;;;;;;7.10;99.90;;;;;;5032161;28;19932;-72
2023/12/14 07:26:06;;;;;;;;;;;7.10;99.90;;;;;;5031772;28;19921;-72
2023/12/14 07:28:35;;;;;;;;;;;7.10;99.90;;;;;;5032057;28;19967;-72
2023/12/14 07:31:03;;;;;;;;;;;7.10;99.90;;;;;;5032210;28;19925;-72
2023/12/14 07:33:31;;;;;;;;;;;7.00;99.90;;;;;;5032026;28;19971;-72
2023/12/14 07:36:00;;;;;;;;;;;7.10;99.90;;;;;;5032317;28;19960;-71
2023/12/14 07:38:28;;;;;;;;;;;7.00;99.90;;;;;;5031503;28;19928;-72
2023/12/14 07:40:56;;;;;;;;;;;7.00;99.90;;;;;;5031889;28;19959;-74
2023/12/14 07:43:24;;;;;;;;;;;6.80;99.90;;;;;;5024002;28;20411;-71
2023/12/14 07:45:52;;;;;;;;;;;6.70;99.90;;;;;;5008605;28;19929;-71
2023/12/14 07:48:20;;;;;;;;;;;6.70;99.90;;;;;;5023129;28;19922;-72
2023/12/14 07:50:48;;;;;;;;;;;6.70;99.90;;;;;;5023406;28;19929;-72
2023/12/14 07:53:17;;;;;;;;;;;6.70;99.90;;;;;;5032201;28;20018;-72
2023/12/14 07:55:45;;;;;;;;;;;6.80;99.90;;;;;;5031440;28;19924;-72
2023/12/14 07:58:13;;;;;;;;;;;6.80;99.90;;;;;;5031501;28;19956;-72
2023/12/14 08:00:41;;;;;;;;;;;6.90;99.90;;;;;;5031545;28;20416;-74
2023/12/14 08:03:09;;;;;;;;;;;6.90;99.90;;;;;;5026202;28;19928;-71
2023/12/14 08:05:37;;;;;;;;;;;7.00;99.90;;;;;;5028960;28;19921;-72
2023/12/14 08:08:05;;;;;;;;;;;7.10;99.90;;;;;;5031471;28;20368;-72
2023/12/14 08:10:34;;;;;;;;;;;7.10;99.90;;;;;;5013205;28;19964;-72
2023/12/14 08:13:02;;;;;;;;;;;7.20;99.90;;;;;;5021770;28;19921;-72
2023/12/14 08:15:30;;;;;;;;;;;7.30;99.90;;;;;;5003688;28;19928;-70
2023/12/14 08:17:57;;;;;;;;;;;7.40;99.90;;;;;;5015736;28;19921;-72
2023/12/14 08:20:25;;;;;;;;;;;7.50;99.90;;;;;;5031091;28;20043;-72
2023/12/14 08:22:53;;;;;;;;;;;7.60;99.90;;;;;;5030576;28;19921;-72
2023/12/14 08:25:21;;;;;;;;;;;7.70;99.90;;;;;;5031368;28;20364;-72
2023/12/14 08:27:51;;;;;;;;;;;7.70;99.90;;;;;;5022385;28;19926;-72
2023/12/14 08:30:18;;;;;;;;;;;7.80;99.90;;;;;;5023176;28;19920;-70
2023/12/14 08:32:47;;;;;;;;;;;7.80;99.90;;;;;;5029257;28;19921;-72
2023/12/14 08:35:14;;;;;;;;;;;7.80;99.90;;;;;;5025783;28;19968;-72
2023/12/14 08:37:43;;;;;;;;;;;7.90;99.90;;;;;;5029266;28;20452;-72
2023/12/14 08:40:12;;;;;;;;;;;7.90;99.90;;;;;;5024932;28;19927;-72
2023/12/14 08:42:40;;;;;;;;;;;7.90;99.90;;;;;;5030887;28;19921;-72
2023/12/14 08:45:12;;;;;;;;;;;7.80;99.90;;;;;;4999759;28;19925;-73
2023/12/14 08:47:40;;;;;;;;;;;7.90;99.90;;;;;;5009541;28;20427;-72
2023/12/14 08:50:08;;;;;;;;;;;7.90;99.90;;;;;;5022951;28;19921;-72
2023/12/14 08:52:36;;;;;;;;;;;7.90;99.90;;;;;;5030662;28;20316;-72
2023/12/14 08:55:05;;;;;;;;;;;7.90;99.90;;;;;;5030952;28;19928;-73
2023/12/14 08:57:33;;;;;;;;;;;7.90;99.90;;;;;;5030513;28;19940;-72
2023/12/14 09:00:01;;;;;;;;;;;7.90;99.90;;;;;;5014958;28;19925;-72
2023/12/14 09:02:30;;;;;;;;;;;7.90;99.90;;;;;;5031092;28;19921;-74
2023/12/14 09:04:58;;;;;;;;;;;8.00;99.90;;;;;;5022593;28;20371;-72
2023/12/14 09:07:26;;;;;;;;;;;8.10;99.90;;;;;;5030595;28;19925;-72
2023/12/14 09:09:53;;;;;;;;;;;8.10;99.90;;;;;;5030742;28;19971;-72
2023/12/14 09:12:21;;;;;;;;;;;8.00;99.90;;;;;;5030974;28;19928;-73
2023/12/14 09:14:49;;;;;;;;;;;8.00;99.90;;;;;;5011560;28;19944;-72
2023/12/14 09:17:17;;;;;;;;;;;8.10;99.90;;;;;;5018632;28;19924;-72
2023/12/14 09:19:47;;;;;;;;;;;8.10;99.90;;;;;;5030694;28;19921;-72
2023/12/14 09:22:15;;;;;;;;;;;8.10;99.90;;;;;;5030889;28;19921;-71
2023/12/14 09:24:42;;;;;;;;;;;8.10;99.90;;;;;;5030721;28;19921;-72
2023/12/14 09:27:10;;;;;;;;;;;8.00;99.90;;;;;;5030308;28;19925;-71
2023/12/14 09:29:38;;;;;;;;;;;7.90;99.90;;;;;;5030522;28;20430;-72
2023/12/14 09:32:08;;;;;;;;;;;7.80;99.90;;;;;;5030750;28;19928;-72
2023/12/14 09:34:36;;;;;;;;;;;7.70;99.90;;;;;;5034544;28;19921;-72
2023/12/14 09:37:05;;;;;;;;;;;7.70;99.90;;;;;;5033938;28;20407;-71
2023/12/14 09:39:33;;;;;;;;;;;7.60;99.90;;;;;;5034389;28;19925;-72
2023/12/14 09:42:03;;;;;;;;;;;7.50;99.90;;;;;;5033891;28;20384;-72
2023/12/14 09:44:31;;;;;;;;;;;7.50;99.90;;;;;;5012240;28;19972;-72
2023/12/14 09:46:59;;;;;;;;;;;7.60;99.90;;;;;;5008319;28;19929;-72
2023/12/14 09:49:29;;;;;;;;;;;7.60;99.90;;;;;;5034289;28;19975;-72
2023/12/14 09:51:57;;;;;;;;;;;7.60;99.90;;;;;;5033705;28;19921;-72
2023/12/14 09:54:27;;;;;;;;;;;7.70;99.90;;;;;;5034085;28;19921;-72
2023/12/14 09:56:55;;;;;;;;;;;7.70;99.90;;;;;;5033651;28;19921;-71
2023/12/14 09:59:23;;;;;;;;;;;7.80;99.90;;;;;;5034004;28;19929;-71
2023/12/14 10:01:51;;;;;;;;;;;7.70;99.90;;;;;;5034046;28;20006;-71
2023/12/14 10:04:20;;;;;;;;;;;7.70;99.90;;;;;;5033807;28;20350;-71
2023/12/14 10:06:48;;;;;;;;;;;7.70;99.90;;;;;;5033575;28;20292;-71
2023/12/14 10:09:23;;;;;;;;;;;7.60;99.90;;;;;;5033900;28;20567;-71
2023/12/14 10:12:02;;;;;;;;;;;7.60;99.90;;;;;;5031969;28;19921;-71
2023/12/14 10:14:30;;;;;;;;;;;7.50;99.90;;;;;;5007617;28;19929;-71
2023/12/14 10:16:58;;;;;;;;;;;7.50;99.90;;;;;;5030933;28;20411;-71
2023/12/14 10:19:30;;;;;;;;;;;7.50;99.90;;;;;;5033695;28;20380;-71
2023/12/14 10:22:01;;;;;;;;;;;7.50;99.90;;;;;;5022653;28;20007;-71
2023/12/14 10:24:29;;;;;;;;;;;7.50;99.90;;;;;;5028546;28;19921;-72
2023/12/14 10:26:58;;;;;;;;;;;7.50;99.90;;;;;;5033082;28;20395;-71
2023/12/14 10:29:26;;;;;;;;;;;7.50;99.90;;;;;;5033286;28;19921;-71
2023/12/14 10:31:54;;;;;;;;;;;7.40;99.90;;;;;;5032923;28;19975;-74
2023/12/14 10:34:22;;;;;;;;;;;7.50;99.90;;;;;;5033361;28;19927;-72
2023/12/14 10:36:50;;;;;;;;;;;7.50;99.90;;;;;;5033236;28;19925;-72
2023/12/14 10:39:18;;;;;;;;;;;7.50;99.90;;;;;;5015446;28;19971;-72
2023/12/14 10:41:48;;;;;;;;;;;7.50;99.90;;;;;;5032731;28;19928;-72
2023/12/14 10:44:27;;;;;;;;;;;7.60;99.90;;;;;;5004554;28;20012;-74
2023/12/14 10:47:15;;;;;;;;;;;7.60;99.90;;;;;;5018330;28;19987;-72
2023/12/14 10:49:44;;;;;;;;;;;7.70;99.90;;;;;;5032766;28;20011;-73
2023/12/14 10:52:12;;;;;;;;;;;7.70;99.90;;;;;;5032548;28;20339;-74
2023/12/14 10:54:41;;;;;;;;;;;7.80;99.90;;;;;;5032933;28;20012;-72
2023/12/14 10:57:08;;;;;;;;;;;7.90;99.90;;;;;;5032405;28;19921;-73
2023/12/14 10:59:37;;;;;;;;;;;7.90;99.90;;;;;;5032712;28;19924;-72
2023/12/14 11:02:09;;;;;;;;;;;8.00;99.90;;;;;;5032575;28;19944;-73
2023/12/14 11:04:52;;;;;;;;;;;8.10;99.90;;;;;;5022778;28;19968;-74
2023/12/14 11:07:40;;;;;;;;;;;8.10;99.90;;;;;;5026063;28;19921;-73
2023/12/14 11:10:09;;;;;;;;;;;8.10;99.90;;;;;;5032377;28;19921;-73
2023/12/14 11:12:37;;;;;;;;;;;8.10;99.90;;;;;;5032701;28;19928;-73
2023/12/14 11:15:07;;;;;;;;;;;8.20;99.90;;;;;;4994190;28;20041;-73
2023/12/14 11:17:35;;;;;;;;;;;8.20;99.90;;;;;;5022168;28;19928;-73
2023/12/14 11:20:18;;;;;;;;;;;8.20;99.90;;;;;;5024159;28;19921;-75
2023/12/14 11:22:48;;;;;;;;;;;8.30;99.90;;;;;;5032079;28;19927;-74
2023/12/14 11:25:17;;;;;;;;;;;8.40;99.90;;;;;;5017522;28;20388;-74
2023/12/14 11:27:54;;;;;;;;;;;8.40;99.90;;;;;;5023505;28;19925;-74
2023/12/14 11:30:25;;;;;;;;;;;8.50;99.90;;;;;;5027682;28;19921;-77
2023/12/14 11:32:56;;;;;;;;;;;8.60;99.90;;;;;;5029951;28;19932;-73
2023/12/14 11:35:24;;;;;;;;;;;8.70;99.90;;;;;;5032249;28;19925;-74
2023/12/14 11:37:52;;;;;;;;;;;8.70;99.90;;;;;;5031524;28;20312;-70
2023/12/14 11:40:22;;;;;;;;;;;8.70;99.90;;;;;;5032008;28;19960;-72
2023/12/14 11:42:58;;;;;;;;;;;8.60;99.90;;;;;;5030653;28;19925;-72
2023/12/14 11:45:27;;;;;;;;;;;8.60;99.90;;;;;;5002520;28;20507;-72
2023/12/14 11:47:55;;;;;;;;;;;8.60;99.90;;;;;;5023239;28;20343;-72
2023/12/14 11:50:23;;;;;;;;;;;8.60;99.90;;;;;;5031995;28;20363;-72
2023/12/14 11:52:52;;;;;;;;;;;8.50;99.90;;;;;;5031623;28;20471;-71
2023/12/14 11:55:22;;;;;;;;;;;8.60;99.90;;;;;;5027664;28;20402;-74
2023/12/14 11:57:51;;;;;;;;;;;8.60;99.90;;;;;;5027741;28;19975;-75
2023/12/14 12:00:19;;;;;;;;;;;8.60;99.90;;;;;;5031484;28;19921;-74
2023/12/14 12:02:48;;;;;;;;;;;8.60;99.90;;;;;;5031833;28;19921;-74
2023/12/14 12:05:18;;;;;;;;;;;8.50;99.90;;;;;;5015416;28;19920;-71
2023/12/14 12:07:46;;;;;;;;;;;8.40;99.90;;;;;;5031622;28;19975;-71
2023/12/14 12:10:14;;;;;;;;;;;8.50;99.90;;;;;;5028243;28;19922;-71
2023/12/14 12:12:42;;;;;;;;;;;8.40;99.90;;;;;;5026928;28;19932;-70
2023/12/14 12:15:13;;;;;;;;;;;8.40;99.90;;;;;;4994672;28;19929;-72
2023/12/14 12:17:40;;;;;;;;;;;8.30;99.90;;;;;;5026033;28;19957;-71
2023/12/14 12:20:10;;;;;;;;;;;8.30;99.90;;;;;;5031184;28;20033;-71
2023/12/14 12:22:38;;;;;;;;;;;8.30;99.90;;;;;;5031404;28;19928;-73
2023/12/14 12:25:06;;;;;;;;;;;8.20;99.90;;;;;;5031253;28;19927;-73
2023/12/14 12:27:42;;;;;;;;;;;8.20;99.90;;;;;;5031099;28;19928;-73
2023/12/14 12:30:10;;;;;;;;;;;8.30;99.90;;;;;;5030908;28;20324;-74
2023/12/14 12:32:38;;;;;;;;;;;8.30;99.90;;;;;;5031312;28;19925;-73
2023/12/14 12:35:06;;;;;;;;;;;8.20;99.90;;;;;;5031152;28;19921;-74
2023/12/14 12:37:35;;;;;;;;;;;8.40;99.90;;;;;;5031043;28;20307;-75
2023/12/14 12:40:04;;;;;;;;;;;8.50;99.90;;;;;;5030715;28;20200;-73
2023/12/14 12:42:32;;;;;;;;;;;8.60;99.90;;;;;;5031489;28;19928;-73
2023/12/14 12:45:00;;;;;;;;;;;8.70;99.90;;;;;;5003233;28;19922;-73
2023/12/14 12:47:28;;;;;;;;;;;8.80;99.90;;;;;;5012787;28;19925;-74
2023/12/14 12:49:56;;;;;;;;;;;8.70;99.90;;;;;;5027509;28;20284;-71
2023/12/14 12:52:25;;;;;;;;;;;8.80;99.90;;;;;;5031080;28;19993;-76
2023/12/14 12:54:54;;;;;;;;;;;8.80;99.90;;;;;;5031281;28;19987;-74
2023/12/14 12:57:22;;;;;;;;;;;8.80;99.90;;;;;;5014837;28;19921;-73
2023/12/14 12:59:49;;;;;;;;;;;8.90;99.90;;;;;;5022466;28;19932;-74
2023/12/14 13:02:17;;;;;;;;;;;9.00;99.90;;;;;;5030929;28;19979;-74
2023/12/14 13:04:46;;;;;;;;;;;8.90;99.90;;;;;;5031130;28;19921;-74
2023/12/14 13:07:14;;;;;;;;;;;8.80;99.90;;;;;;5030868;28;19921;-74
2023/12/14 13:09:42;;;;;;;;;;;8.80;99.90;;;;;;5034975;28;20336;-71
2023/12/14 13:12:11;;;;;;;;;;;8.80;99.90;;;;;;5032933;28;19931;-73
2023/12/14 13:14:39;;;;;;;;;;;8.70;99.90;;;;;;5001260;28;19968;-71
2023/12/14 13:17:06;;;;;;;;;;;8.60;99.90;;;;;;5021931;28;20354;-71
2023/12/14 13:19:34;;;;;;;;;;;8.60;99.90;;;;;;5034594;28;20012;-71
2023/12/14 13:22:02;;;;;;;;;;;8.60;99.90;;;;;;5034597;28;20303;-73
2023/12/14 13:24:30;;;;;;;;;;;8.60;99.90;;;;;;5034547;28;19928;-71
2023/12/14 13:26:58;;;;;;;;;;;8.50;99.90;;;;;;5034379;28;20006;-69
2023/12/14 13:29:27;;;;;;;;;;;8.50;99.90;;;;;;5026465;28;19920;-71
2023/12/14 13:31:55;;;;;;;;;;;8.50;99.90;;;;;;5034499;28;19971;-72
2023/12/14 13:34:23;;;;;;;;;;;8.50;99.90;;;;;;5034218;28;20023;-73
2023/12/14 13:36:50;;;;;;;;;;;8.40;99.90;;;;;;5034621;28;19928;-71
2023/12/14 13:39:19;;;;;;;;;;;8.40;99.90;;;;;;5034034;28;19925;-72
2023/12/14 13:41:47;;;;;;;;;;;8.40;99.90;;;;;;5034358;28;20438;-71
2023/12/14 13:44:18;;;;;;;;;;;8.40;99.90;;;;;;5012983;28;19922;-71
2023/12/14 13:46:47;;;;;;;;;;;8.30;99.90;;;;;;5012317;28;20381;-72
2023/12/14 13:49:15;;;;;;;;;;;8.20;99.90;;;;;;5033858;28;19921;-71
2023/12/14 13:51:43;;;;;;;;;;;8.20;99.90;;;;;;5034052;28;19929;-71
2023/12/14 13:54:11;;;;;;;;;;;8.10;99.90;;;;;;5034615;28;20311;-71
2023/12/14 13:56:40;;;;;;;;;;;8.10;99.90;;;;;;5033885;28;19971;-72
2023/12/14 13:59:07;;;;;;;;;;;8.10;99.90;;;;;;5033991;28;19927;-71
2023/12/14 14:01:35;;;;;;;;;;;8.10;99.90;;;;;;5033780;28;20303;-74
2023/12/14 14:04:04;;;;;;;;;;;8.10;99.90;;;;;;5033676;28;20368;-71
2023/12/14 14:06:32;;;;;;;;;;;8.10;99.90;;;;;;5033727;28;19924;-73
2023/12/14 14:09:00;;;;;;;;;;;8.20;99.90;;;;;;5033725;28;19967;-72
2023/12/14 14:11:28;;;;;;;;;;;8.20;99.90;;;;;;5033792;28;20003;-71
2023/12/14 14:13:56;;;;;;;;;;;8.30;99.90;;;;;;5016559;28;19922;-71
2023/12/14 14:16:23;;;;;;;;;;;8.30;99.90;;;;;;5015742;28;20408;-70
2023/12/14 14:18:52;;;;;;;;;;;8.30;99.90;;;;;;5033441;28;19921;-71
2023/12/14 14:21:21;;;;;;;;;;;8.20;99.90;;;;;;5033083;28;19921;-72
2023/12/14 14:23:49;;;;;;;;;;;8.20;99.90;;;;;;5033566;28;19925;-72
2023/12/14 14:26:16;;;;;;;;;;;8.00;99.90;;;;;;5033101;28;19947;-71
2023/12/14 14:28:44;;;;;;;;;;;8.00;99.90;;;;;;5033575;28;19928;-71
2023/12/14 14:31:12;;;;;;;;;;;8.00;99.90;;;;;;5033034;28;19975;-72
2023/12/14 14:33:40;;;;;;;;;;;8.00;99.90;;;;;;5033447;28;19991;-72
2023/12/14 14:36:08;;;;;;;;;;;8.00;99.90;;;;;;5033046;28;20311;-72
2023/12/14 14:38:37;;;;;;;;;;;8.00;99.90;;;;;;5033256;28;19931;-74